createdAt,value
2022-10-13T00:00:14.001Z,88.07
2022-10-13T00:02:40.521Z,88.00
2022-10-13T00:05:07.183Z,88.49
2022-10-13T00:07:33.632Z,88.36
2022-10-13T00:10:00.142Z,88.71
2022-10-13T00:12:26.640Z,88.60
2022-10-13T00:14:53.341Z,88.45
2022-10-13T00:17:19.868Z,87.57
2022-10-13T00:19:46.329Z,87.70
2022-10-13T00:22:12.760Z,87.51
2022-10-13T00:24:39.224Z,87.58
2022-10-13T00:27:05.752Z,87.37
2022-10-13T00:29:32.278Z,87.86
2022-10-13T00:31:58.712Z,87.63
2022-10-13T00:34:25.295Z,87.88
2022-10-13T00:37:04.573Z,87.56
2022-10-13T00:39:40.266Z,87.13
2022-10-13T00:42:08.018Z,87.37
2022-10-13T00:45:05.348Z,87.02
2022-10-13T00:47:36.996Z,87.31
2022-10-13T00:50:05.060Z,87.25
2022-10-13T00:52:32.919Z,87.49
2022-10-13T00:55:01.000Z,87.92
2022-10-13T00:57:27.666Z,88.02
2022-10-13T00:59:54.878Z,87.94
2022-10-13T01:02:23.694Z,88.18
2022-10-13T01:04:51.501Z,87.90
2022-10-13T01:07:19.119Z,87.64
2022-10-13T01:09:45.807Z,88.34
2022-10-13T01:12:26.490Z,88.58
2022-10-13T01:14:55.714Z,88.87
2022-10-13T01:17:33.288Z,88.70
2022-10-13T01:19:59.605Z,88.57
2022-10-13T01:22:49.173Z,88.73
2022-10-13T01:25:26.624Z,87.87
2022-10-13T01:28:08.825Z,87.55
2022-10-13T01:30:45.647Z,87.71
2022-10-13T01:33:26.507Z,87.51
2022-10-13T01:36:17.505Z,88.18
2022-10-13T01:38:57.942Z,87.93
2022-10-13T01:41:31.737Z,88.14
2022-10-13T01:44:08.752Z,88.36
2022-10-13T01:46:38.079Z,88.59
2022-10-13T01:49:10.127Z,88.40
2022-10-13T01:51:37.280Z,88.45
2022-10-13T01:54:06.894Z,88.22
2022-10-13T01:56:33.431Z,88.37
2022-10-13T01:59:04.709Z,88.45
2022-10-13T02:01:49.433Z,88.76
2022-10-13T02:04:45.644Z,88.71
2022-10-13T02:07:29.804Z,88.47
2022-10-13T02:10:20.418Z,88.87
2022-10-13T02:12:53.306Z,89.12
2022-10-13T02:15:25.261Z,89.17
2022-10-13T02:17:53.383Z,89.19
2022-10-13T02:20:21.197Z,89.29
2022-10-13T02:22:54.627Z,89.68
2022-10-13T02:25:21.116Z,89.48
2022-10-13T02:27:47.680Z,89.57
2022-10-13T02:30:25.255Z,89.71
2022-10-13T02:32:51.669Z,89.92
2022-10-13T02:35:18.886Z,89.81
2022-10-13T02:37:45.490Z,90.01
2022-10-13T02:40:12.886Z,89.76
2022-10-13T02:42:39.464Z,90.10
2022-10-13T02:45:06.859Z,90.05
2022-10-13T02:47:33.306Z,90.20
2022-10-13T02:49:59.697Z,90.21
2022-10-13T02:52:26.164Z,90.19
2022-10-13T02:54:52.642Z,90.07
2022-10-13T02:57:19.198Z,90.39
2022-10-13T02:59:45.942Z,90.57
2022-10-13T03:02:12.445Z,90.34
2022-10-13T03:04:38.980Z,90.16
2022-10-13T03:07:05.470Z,90.50
2022-10-13T03:09:32.218Z,90.45
2022-10-13T03:11:58.708Z,90.25
2022-10-13T03:14:25.101Z,89.94
2022-10-13T03:16:51.641Z,89.53
2022-10-13T03:19:18.038Z,89.99
2022-10-13T03:21:44.455Z,90.11
2022-10-13T03:24:11.115Z,90.42
2022-10-13T03:26:49.882Z,90.55
2022-10-13T03:29:18.304Z,90.77
2022-10-13T03:31:45.071Z,90.70
2022-10-13T03:34:12.851Z,90.75
2022-10-13T03:36:39.789Z,90.84
2022-10-13T03:39:06.672Z,91.28
2022-10-13T03:41:39.091Z,91.23
2022-10-13T03:44:05.735Z,91.33
2022-10-13T03:46:32.268Z,91.38
2022-10-13T03:48:58.801Z,91.50
2022-10-13T03:51:25.551Z,91.55
2022-10-13T03:53:54.042Z,91.58
2022-10-13T03:56:23.454Z,91.62
2022-10-13T03:58:54.586Z,91.92
2022-10-13T04:01:26.278Z,91.93
2022-10-13T04:03:55.477Z,92.11
2022-10-13T04:06:23.050Z,91.83
2022-10-13T04:08:49.600Z,92.16
2022-10-13T04:11:16.641Z,92.01
2022-10-13T04:13:43.704Z,92.01
2022-10-13T04:16:16.163Z,92.02
2022-10-13T04:18:44.907Z,92.31
2022-10-13T04:21:14.784Z,91.94
2022-10-13T04:23:41.637Z,92.17
2022-10-13T04:26:14.017Z,92.44
2022-10-13T04:28:40.579Z,91.99
2022-10-13T04:31:07.041Z,92.36
2022-10-13T04:33:33.511Z,92.33
2022-10-13T04:36:04.270Z,92.16
2022-10-13T04:38:30.641Z,92.00
2022-10-13T04:40:57.236Z,92.40
2022-10-13T04:43:23.783Z,92.48
2022-10-13T04:45:50.319Z,92.40
2022-10-13T04:48:16.810Z,92.23
2022-10-13T04:50:43.824Z,92.02
2022-10-13T04:53:11.064Z,92.29
2022-10-13T04:55:39.634Z,92.55
2022-10-13T04:58:09.205Z,92.46
2022-10-13T05:00:35.734Z,92.57
2022-10-13T05:03:02.186Z,92.24
2022-10-13T05:05:28.622Z,92.94
2022-10-13T05:07:54.980Z,92.33
2022-10-13T05:10:21.351Z,92.21
2022-10-13T05:12:47.800Z,91.86
2022-10-13T05:15:14.266Z,91.79
2022-10-13T05:17:40.747Z,91.94
2022-10-13T05:20:07.823Z,91.96
2022-10-13T05:22:34.312Z,92.05
2022-10-13T05:25:00.699Z,92.61
2022-10-13T05:27:27.155Z,92.58
2022-10-13T05:29:53.634Z,93.00
2022-10-13T05:32:20.344Z,92.91
2022-10-13T05:34:49.893Z,92.99
2022-10-13T05:37:18.889Z,92.99
2022-10-13T05:39:48.887Z,93.08
2022-10-13T05:42:15.816Z,93.25
2022-10-13T05:44:42.496Z,93.15
2022-10-13T05:47:09.064Z,93.44
2022-10-13T05:49:39.857Z,93.38
2022-10-13T05:52:10.132Z,93.65
2022-10-13T05:54:42.130Z,93.64
2022-10-13T05:57:19.640Z,93.80
2022-10-13T05:59:51.713Z,93.61
2022-10-13T06:02:21.146Z,93.72
2022-10-13T06:04:50.802Z,93.75
2022-10-13T06:07:17.954Z,93.93
2022-10-13T06:09:44.926Z,94.09
2022-10-13T06:12:11.461Z,94.18
2022-10-13T06:14:38.044Z,94.21
2022-10-13T06:17:04.617Z,94.15
2022-10-13T06:19:31.192Z,94.14
2022-10-13T06:22:01.278Z,94.27
2022-10-13T06:24:30.637Z,94.15
2022-10-13T06:32:21.616Z,94.31
2022-10-13T06:34:48.401Z,94.62
2022-10-13T06:37:15.030Z,94.61
2022-10-13T06:39:42.267Z,94.75
2022-10-13T06:42:08.697Z,94.77
2022-10-13T06:44:37.835Z,94.97
2022-10-13T06:47:05.236Z,94.90
2022-10-13T06:49:32.212Z,94.97
2022-10-13T06:51:59.812Z,95.18
2022-10-13T06:54:26.619Z,95.15
2022-10-13T06:56:53.137Z,95.08
2022-10-13T06:59:19.870Z,95.06
2022-10-13T07:01:47.672Z,95.62
2022-10-13T07:04:14.360Z,95.60
2022-10-13T07:06:41.292Z,95.59
2022-10-13T07:09:08.832Z,95.39
2022-10-13T07:11:35.878Z,95.77
2022-10-13T07:16:28.716Z,95.52
2022-10-13T07:18:55.084Z,95.57
2022-10-13T07:21:21.771Z,95.63
2022-10-13T07:23:48.397Z,95.72
2022-10-13T07:26:16.394Z,95.85
2022-10-13T07:28:44.225Z,95.90
2022-10-13T07:31:21.350Z,95.79
2022-10-13T07:33:49.679Z,95.82
2022-10-13T07:36:16.460Z,95.62
2022-10-13T07:38:46.776Z,95.87
2022-10-13T07:41:22.792Z,95.81
2022-10-13T07:43:49.154Z,95.67
2022-10-13T07:46:16.861Z,95.60
2022-10-13T07:48:43.270Z,95.29
2022-10-13T07:51:12.257Z,95.57
2022-10-13T07:53:39.268Z,95.57
2022-10-13T07:56:08.319Z,95.38
2022-10-13T07:58:37.912Z,95.26
2022-10-13T08:01:05.242Z,94.97
2022-10-13T08:03:33.015Z,95.28
2022-10-13T08:06:01.165Z,95.23
2022-10-13T08:08:28.238Z,94.90
2022-10-13T08:10:55.129Z,94.78
2022-10-13T08:13:21.778Z,94.87
2022-10-13T08:15:48.228Z,94.75
2022-10-13T08:18:15.259Z,94.85
2022-10-13T08:20:43.884Z,94.64
2022-10-13T08:23:11.948Z,94.41
2022-10-13T08:25:39.848Z,94.18
2022-10-13T08:28:17.406Z,93.27
2022-10-13T08:30:44.242Z,89.84
2022-10-13T08:33:10.862Z,88.27
2022-10-13T08:35:37.749Z,86.09
2022-10-13T08:38:04.489Z,85.34
2022-10-13T08:40:35.762Z,85.79
2022-10-13T08:43:06.370Z,86.38
2022-10-13T08:45:42.094Z,86.46
2022-10-13T08:48:18.683Z,87.04
2022-10-13T08:50:48.885Z,87.33
2022-10-13T08:53:35.471Z,87.65
2022-10-13T08:56:13.995Z,87.80
2022-10-13T08:58:42.403Z,88.14
2022-10-13T09:01:08.741Z,88.55
2022-10-13T09:03:48.284Z,88.87
2022-10-13T09:06:19.057Z,88.55
2022-10-13T09:08:54.250Z,88.88
2022-10-13T09:11:21.089Z,88.96
2022-10-13T09:13:47.676Z,89.30
2022-10-13T09:16:14.070Z,89.13
2022-10-13T09:18:40.572Z,88.92
2022-10-13T09:21:16.715Z,88.63
2022-10-13T09:23:43.145Z,88.80
2022-10-13T09:26:18.924Z,88.88
2022-10-13T09:28:45.449Z,88.99
2022-10-13T09:31:17.045Z,88.84
2022-10-13T09:33:44.476Z,88.88
2022-10-13T09:36:13.425Z,88.44
2022-10-13T09:38:42.608Z,88.34
2022-10-13T09:41:08.968Z,88.30
2022-10-13T09:43:40.755Z,88.28
2022-10-13T09:46:26.353Z,87.60
2022-10-13T09:49:00.260Z,87.50
2022-10-13T09:51:41.084Z,86.98
2022-10-13T09:54:28.869Z,87.36
2022-10-13T09:57:03.420Z,87.11
2022-10-13T09:59:43.156Z,86.73
2022-10-13T10:02:53.941Z,86.21
2022-10-13T10:05:55.805Z,86.13
2022-10-13T10:09:04.075Z,86.10
2022-10-13T10:11:39.025Z,85.24
2022-10-13T10:14:34.379Z,84.74
2022-10-13T10:17:27.023Z,84.70
2022-10-13T10:19:59.491Z,84.17
2022-10-13T10:22:54.142Z,83.99
2022-10-13T10:25:33.804Z,83.70
2022-10-13T10:28:09.294Z,82.97
2022-10-13T10:30:43.212Z,82.31
2022-10-13T10:33:15.462Z,81.72
2022-10-13T10:36:25.173Z,81.33
2022-10-13T10:39:02.560Z,80.73
2022-10-13T10:41:46.908Z,80.45
2022-10-13T10:44:17.603Z,80.21
2022-10-13T10:46:48.781Z,78.50
2022-10-13T10:49:30.410Z,78.50
2022-10-13T10:51:58.692Z,78.28
2022-10-13T10:54:48.241Z,77.86
2022-10-13T10:57:33.566Z,77.89
2022-10-13T11:00:16.831Z,77.76
2022-10-13T11:03:01.743Z,78.14
2022-10-13T11:05:59.672Z,77.42
2022-10-13T11:08:38.465Z,77.84
2022-10-13T11:11:24.733Z,78.06
2022-10-13T11:14:00.424Z,77.89
2022-10-13T11:16:38.602Z,78.18
2022-10-13T11:19:30.380Z,78.01
2022-10-13T11:22:12.234Z,77.72
2022-10-13T11:24:41.545Z,78.13
2022-10-13T11:27:07.848Z,78.01
2022-10-13T11:29:51.550Z,77.87
2022-10-13T11:32:35.798Z,78.45
2022-10-13T11:35:02.279Z,79.10
2022-10-13T11:38:13.936Z,79.56
2022-10-13T11:41:01.903Z,79.53
2022-10-13T11:43:51.847Z,79.43
2022-10-13T11:46:29.896Z,79.46
2022-10-13T11:49:14.949Z,79.89
2022-10-13T11:51:57.540Z,80.32
2022-10-13T11:54:39.482Z,80.62
2022-10-13T11:57:23.036Z,80.74
2022-10-13T11:59:54.817Z,80.86
2022-10-13T12:02:23.443Z,81.06
2022-10-13T12:05:28.748Z,81.43
2022-10-13T12:08:03.750Z,81.73
2022-10-13T12:10:35.979Z,81.91
2022-10-13T12:13:04.121Z,81.67
2022-10-13T12:15:32.149Z,81.64
2022-10-13T12:17:58.850Z,81.69
2022-10-13T12:20:29.064Z,81.60
2022-10-13T12:22:56.693Z,81.62
2022-10-13T12:25:26.693Z,81.80
2022-10-13T12:27:56.318Z,82.14
2022-10-13T12:30:37.854Z,81.87
2022-10-13T12:33:20.824Z,82.16
2022-10-13T12:35:47.365Z,82.05
2022-10-13T12:38:19.322Z,81.76
2022-10-13T12:40:51.018Z,81.80
2022-10-13T12:43:22.213Z,82.27
2022-10-13T12:45:48.788Z,82.24
2022-10-13T12:48:43.338Z,82.33
2022-10-13T12:51:25.793Z,82.64
2022-10-13T12:53:53.281Z,82.79
2022-10-13T12:56:29.622Z,83.40
2022-10-13T12:58:59.703Z,83.26
2022-10-13T13:01:35.746Z,83.24
2022-10-13T13:04:17.367Z,83.39
2022-10-13T13:07:01.441Z,83.55
2022-10-13T13:09:35.609Z,84.02
2022-10-13T13:12:21.369Z,85.00
2022-10-13T13:14:51.217Z,85.63
2022-10-13T13:17:27.667Z,85.60
2022-10-13T13:20:20.284Z,86.68
2022-10-13T13:22:46.718Z,86.84
2022-10-13T13:25:13.270Z,86.83
2022-10-13T13:27:40.264Z,86.86
2022-10-13T13:30:12.604Z,86.82
2022-10-13T13:32:39.432Z,86.71
2022-10-13T13:35:06.363Z,86.77
2022-10-13T13:37:41.632Z,86.78
2022-10-13T13:40:15.347Z,86.40
2022-10-13T13:42:41.820Z,86.62
2022-10-13T13:45:12.876Z,86.46
2022-10-13T13:47:39.410Z,86.08
2022-10-13T13:50:15.624Z,85.76
2022-10-13T13:52:42.049Z,85.46
2022-10-13T13:55:08.987Z,85.23
2022-10-13T13:57:35.380Z,84.71
2022-10-13T14:00:02.022Z,84.28
2022-10-13T14:02:28.601Z,84.14
2022-10-13T14:04:55.122Z,84.31
2022-10-13T14:07:22.098Z,83.95
2022-10-13T14:09:49.060Z,83.92
2022-10-13T14:12:15.689Z,83.99
2022-10-13T14:14:42.144Z,83.90
2022-10-13T14:17:08.656Z,83.92
2022-10-13T14:19:35.457Z,84.14
2022-10-13T14:22:04.718Z,83.77
2022-10-13T14:24:34.943Z,83.84
2022-10-13T14:27:01.330Z,83.56
2022-10-13T14:29:27.922Z,83.83
2022-10-13T14:31:54.356Z,83.94
2022-10-13T14:34:21.131Z,83.59
2022-10-13T14:36:48.058Z,83.82
2022-10-13T14:39:14.480Z,83.94
2022-10-13T14:41:41.299Z,83.83
2022-10-13T14:44:10.540Z,84.31
2022-10-13T14:46:36.928Z,84.06
2022-10-13T14:49:03.659Z,84.10
2022-10-13T14:51:31.251Z,84.13
2022-10-13T14:53:57.714Z,84.01
2022-10-13T14:56:26.658Z,83.66
2022-10-13T14:59:05.275Z,83.70
2022-10-13T15:01:33.393Z,83.84
2022-10-13T15:04:01.124Z,83.75
2022-10-13T15:06:27.712Z,83.81
2022-10-13T15:08:54.936Z,83.57
2022-10-13T15:11:22.247Z,84.06
2022-10-13T15:13:48.744Z,83.95
2022-10-13T15:16:18.487Z,83.99
2022-10-13T15:18:45.133Z,84.30
2022-10-13T15:21:12.213Z,84.14
2022-10-13T15:23:39.669Z,84.33
2022-10-13T15:28:52.701Z,84.35
2022-10-13T15:31:20.892Z,84.30
2022-10-13T15:33:51.553Z,84.78
2022-10-13T15:36:18.943Z,84.76
2022-10-13T15:38:45.618Z,85.00
2022-10-13T15:41:12.792Z,85.12
2022-10-13T15:43:39.693Z,84.80
2022-10-13T15:46:08.667Z,85.19
2022-10-13T15:48:35.408Z,85.22
2022-10-13T15:51:02.782Z,85.05
2022-10-13T15:53:29.856Z,85.45
2022-10-13T15:56:03.214Z,85.74
2022-10-13T15:58:29.797Z,85.54
2022-10-13T16:01:10.181Z,85.77
2022-10-13T16:03:36.781Z,85.79
2022-10-13T16:06:09.774Z,86.08
2022-10-13T16:08:40.758Z,85.94
2022-10-13T16:11:10.100Z,86.03
2022-10-13T16:13:36.661Z,86.34
2022-10-13T16:16:03.232Z,86.58
2022-10-13T16:18:35.490Z,86.72
2022-10-13T16:21:08.692Z,86.76
2022-10-13T16:23:35.574Z,86.94
2022-10-13T16:26:03.697Z,87.09
2022-10-13T16:28:30.202Z,87.04
2022-10-13T16:30:56.859Z,87.46
2022-10-13T16:33:23.264Z,87.45
2022-10-13T16:35:49.656Z,87.66
2022-10-13T16:38:16.184Z,87.75
2022-10-13T16:40:42.577Z,87.91
2022-10-13T16:43:08.951Z,87.82
2022-10-13T16:45:58.641Z,87.85
2022-10-13T16:48:21.939Z,88.10
2022-10-13T16:50:48.322Z,88.17
2022-10-13T16:53:14.869Z,88.46
2022-10-13T16:55:41.923Z,88.75
2022-10-13T16:58:09.265Z,88.72
2022-10-13T17:00:39.613Z,88.75
2022-10-13T17:03:07.002Z,89.05
2022-10-13T17:05:34.271Z,89.34
2022-10-13T17:08:00.984Z,89.15
2022-10-13T17:10:27.490Z,89.25
2022-10-13T17:12:54.517Z,89.25
2022-10-13T17:15:21.017Z,89.44
2022-10-13T17:17:47.669Z,89.55
2022-10-13T17:20:14.121Z,89.64
2022-10-13T17:22:46.271Z,89.88
2022-10-13T17:25:13.471Z,90.18
2022-10-13T17:27:40.289Z,89.66
2022-10-13T17:30:07.164Z,89.88
2022-10-13T17:32:38.620Z,90.38
2022-10-13T17:35:06.069Z,89.72
2022-10-13T17:37:32.620Z,89.99
2022-10-13T17:39:58.991Z,89.67
2022-10-13T17:42:26.573Z,89.80
2022-10-13T17:44:53.025Z,90.01
2022-10-13T17:47:19.820Z,89.98
2022-10-13T17:49:46.460Z,89.74
2022-10-13T17:52:27.212Z,89.53
2022-10-13T17:54:59.884Z,89.58
2022-10-13T17:57:26.311Z,89.29
2022-10-13T17:59:53.223Z,89.45
2022-10-13T18:02:21.530Z,89.28
2022-10-13T18:04:47.975Z,89.18
2022-10-13T18:07:14.565Z,89.36
2022-10-13T18:09:41.112Z,88.90
2022-10-13T18:12:13.379Z,88.78
2022-10-13T18:14:39.893Z,88.71
2022-10-13T18:17:06.381Z,88.79
2022-10-13T18:19:36.542Z,88.50
2022-10-13T18:22:05.770Z,88.02
2022-10-13T18:24:32.219Z,87.97
2022-10-13T18:26:58.702Z,87.70
2022-10-13T18:29:25.322Z,87.61
2022-10-13T18:31:54.619Z,87.50
2022-10-13T18:34:21.070Z,87.79
2022-10-13T18:37:05.466Z,87.42
2022-10-13T18:39:34.131Z,87.75
2022-10-13T18:42:06.595Z,87.62
2022-10-13T18:44:33.275Z,88.07
2022-10-13T18:46:59.896Z,88.06
2022-10-13T18:49:30.927Z,87.85
2022-10-13T18:51:58.752Z,88.17
2022-10-13T18:54:26.829Z,88.02
2022-10-13T18:56:53.633Z,87.90
2022-10-13T18:59:20.464Z,87.76
2022-10-13T19:01:47.675Z,87.94
2022-10-13T19:04:16.334Z,87.83
2022-10-13T19:06:44.030Z,87.76
2022-10-13T19:09:13.365Z,87.49
2022-10-13T19:11:40.296Z,87.67
2022-10-13T19:14:11.274Z,87.13
2022-10-13T19:16:40.201Z,87.40
2022-10-13T19:19:09.170Z,87.14
2022-10-13T19:21:37.013Z,87.23
2022-10-13T19:24:11.680Z,87.03
2022-10-13T19:26:38.681Z,86.86
2022-10-13T19:29:13.641Z,87.09
2022-10-13T19:31:41.667Z,87.23
2022-10-13T19:34:11.898Z,86.89
2022-10-13T19:36:44.571Z,87.25
2022-10-13T19:39:18.774Z,87.11
2022-10-13T19:41:46.386Z,87.09
2022-10-13T19:44:16.581Z,87.30
2022-10-13T19:46:44.724Z,87.22
2022-10-13T19:49:17.060Z,87.58
2022-10-13T19:51:43.829Z,87.56
2022-10-13T19:54:11.187Z,87.87
2022-10-13T19:56:38.365Z,87.79
2022-10-13T19:59:12.180Z,87.69
2022-10-13T20:01:40.973Z,87.96
2022-10-13T20:04:08.272Z,87.69
2022-10-13T20:06:34.879Z,87.84
2022-10-13T20:09:01.776Z,87.76
2022-10-13T20:11:28.342Z,87.88
2022-10-13T20:13:54.755Z,88.11
2022-10-13T20:16:23.932Z,87.97
2022-10-13T20:18:56.945Z,88.19
2022-10-13T20:21:24.853Z,87.77
2022-10-13T20:23:51.888Z,87.83
2022-10-13T20:26:19.368Z,87.94
2022-10-13T20:28:47.935Z,87.91
2022-10-13T20:31:16.673Z,88.17
2022-10-13T20:33:43.711Z,88.32
2022-10-13T20:36:13.197Z,88.57
2022-10-13T20:38:39.839Z,88.66
2022-10-13T20:41:09.053Z,88.65
2022-10-13T20:43:35.750Z,88.76
2022-10-13T20:46:04.194Z,88.27
2022-10-13T20:48:51.098Z,88.43
2022-10-13T20:51:22.135Z,88.52
2022-10-13T20:53:50.451Z,88.54
2022-10-13T20:56:20.736Z,88.46
2022-10-13T20:58:54.700Z,88.34
2022-10-13T21:01:22.831Z,88.58
2022-10-13T21:03:56.066Z,88.97
2022-10-13T21:06:28.769Z,89.12
2022-10-13T21:08:55.326Z,89.26
2022-10-13T21:11:32.644Z,89.43
2022-10-13T21:13:59.328Z,89.50
2022-10-13T21:16:27.935Z,89.68
2022-10-13T21:18:55.711Z,89.77
2022-10-13T21:21:24.782Z,90.01
2022-10-13T21:23:56.269Z,90.15
2022-10-13T21:26:23.908Z,90.09
2022-10-13T21:29:01.087Z,90.34
2022-10-13T21:31:28.086Z,90.29
2022-10-13T21:33:54.673Z,90.36
2022-10-13T21:36:26.982Z,90.67
2022-10-13T21:39:01.894Z,90.99
2022-10-13T21:41:29.061Z,91.52
2022-10-13T21:43:56.322Z,91.51
2022-10-13T21:46:25.689Z,91.95
2022-10-13T21:48:57.814Z,91.87
2022-10-13T21:51:25.765Z,91.99
2022-10-13T21:53:54.733Z,91.52
2022-10-13T21:56:22.262Z,91.57
2022-10-13T21:58:49.246Z,91.63
2022-10-13T22:01:22.354Z,91.62
2022-10-13T22:03:52.175Z,91.71
2022-10-13T22:06:19.584Z,91.72
2022-10-13T22:08:49.226Z,91.81
2022-10-13T22:11:17.675Z,91.91
2022-10-13T22:13:44.332Z,92.01
2022-10-13T22:16:33.028Z,91.95
2022-10-13T22:18:59.688Z,91.90
2022-10-13T22:21:29.217Z,92.08
2022-10-13T22:24:02.287Z,92.26
2022-10-13T22:26:32.393Z,92.47
2022-10-13T22:29:01.028Z,92.73
2022-10-13T22:31:27.693Z,92.76
2022-10-13T22:33:54.566Z,93.37
2022-10-13T22:36:23.322Z,93.24
2022-10-13T22:38:51.045Z,93.55
2022-10-13T22:41:18.624Z,93.40
2022-10-13T22:43:48.860Z,93.10
2022-10-13T22:46:18.000Z,93.23
2022-10-13T22:48:44.453Z,93.09
2022-10-13T22:51:12.206Z,93.63
2022-10-13T22:53:38.967Z,93.33
2022-10-13T22:56:11.192Z,93.50
2022-10-13T22:58:37.979Z,93.34
2022-10-13T23:01:15.429Z,93.61
2022-10-13T23:03:42.459Z,93.38
2022-10-13T23:06:13.835Z,93.67
2022-10-13T23:08:41.480Z,93.66
2022-10-13T23:11:08.028Z,93.60
2022-10-13T23:13:34.412Z,93.38
2022-10-13T23:16:06.623Z,93.48
2022-10-13T23:18:33.060Z,93.20
2022-10-13T23:20:59.474Z,93.56
2022-10-13T23:23:25.961Z,93.40
2022-10-13T23:25:52.413Z,93.28
2022-10-13T23:28:19.314Z,93.08
2022-10-13T23:30:45.730Z,93.02
2022-10-13T23:33:12.121Z,92.76
2022-10-13T23:35:38.589Z,92.55
2022-10-13T23:38:05.112Z,92.48
2022-10-13T23:40:33.420Z,92.52
2022-10-13T23:42:59.868Z,91.68
2022-10-13T23:45:26.272Z,92.27
2022-10-13T23:47:52.667Z,92.53
2022-10-13T23:50:19.052Z,92.81
2022-10-13T23:52:45.503Z,93.11
2022-10-13T23:55:12.028Z,93.05
2022-10-13T23:57:38.392Z,93.05
